createdAt,value
2023-03-11T00:00:23.892Z,87.65
2023-03-11T00:01:23.897Z,87.27
2023-03-11T00:02:23.954Z,87.33
2023-03-11T00:03:23.858Z,87.65
2023-03-11T00:04:23.846Z,87.71
2023-03-11T00:05:23.862Z,87.96
2023-03-11T00:06:23.865Z,88.06
2023-03-11T00:07:23.826Z,88.17
2023-03-11T00:08:23.828Z,88.27
2023-03-11T00:09:23.818Z,88.27
2023-03-11T00:10:23.799Z,88.17
2023-03-11T00:11:24.824Z,88.68
2023-03-11T00:12:23.800Z,88.06
2023-03-11T00:13:23.801Z,88.58
2023-03-11T00:14:23.778Z,88.17
2023-03-11T00:15:23.765Z,88.06
2023-03-11T00:16:23.827Z,88.68
2023-03-11T00:17:23.754Z,88.37
2023-03-11T00:18:23.750Z,88.27
2023-03-11T00:19:23.732Z,87.65
2023-03-11T00:20:23.734Z,88.37
2023-03-11T00:21:23.752Z,88.27
2023-03-11T00:22:23.707Z,88.27
2023-03-11T00:23:23.705Z,87.65
2023-03-11T00:24:23.695Z,88.06
2023-03-11T00:25:23.692Z,88.37
2023-03-11T00:26:23.711Z,88.79
2023-03-11T00:27:23.669Z,88.48
2023-03-11T00:28:23.684Z,88.27
2023-03-11T00:29:23.663Z,88.37
2023-03-11T00:30:23.663Z,88.06
2023-03-11T00:31:23.663Z,88.58
2023-03-11T00:32:23.654Z,88.27
2023-03-11T00:33:23.623Z,88.06
2023-03-11T00:34:23.624Z,88.27
2023-03-11T00:35:23.603Z,87.96
2023-03-11T00:36:23.618Z,87.65
2023-03-11T00:37:23.583Z,88.06
2023-03-11T00:38:23.588Z,88.43
2023-03-11T00:39:23.564Z,87.43
2023-03-11T00:40:23.578Z,87.33
2023-03-11T00:41:23.577Z,87.12
2023-03-11T00:42:23.546Z,87.23
2023-03-11T00:43:23.537Z,87.12
2023-03-11T00:44:23.528Z,87.65
2023-03-11T00:45:23.518Z,87.65
2023-03-11T00:46:23.566Z,87.33
2023-03-11T00:47:23.509Z,86.81
2023-03-11T00:48:23.498Z,86.81
2023-03-11T00:49:23.490Z,85.46
2023-03-11T00:50:23.488Z,85.56
2023-03-11T00:51:23.500Z,85.29
2023-03-11T00:52:23.467Z,85.67
2023-03-11T00:53:23.459Z,85.56
2023-03-11T00:54:23.448Z,85.56
2023-03-11T00:55:23.449Z,85.25
2023-03-11T00:56:23.465Z,85.14
2023-03-11T00:57:23.423Z,84.83
2023-03-11T00:58:23.418Z,85.04
2023-03-11T00:59:23.407Z,85.67
2023-03-11T01:00:23.392Z,85.14
2023-03-11T01:01:23.435Z,85.88
2023-03-11T01:02:23.386Z,86.19
2023-03-11T01:03:23.380Z,85.56
2023-03-11T01:04:23.410Z,85.46
2023-03-11T01:05:23.382Z,85.56
2023-03-11T01:06:24.583Z,85.77
2023-03-11T01:07:23.360Z,85.56
2023-03-11T01:08:23.341Z,85.67
2023-03-11T01:09:23.330Z,85.56
2023-03-11T01:10:23.330Z,85.67
2023-03-11T01:11:23.338Z,85.04
2023-03-11T01:12:23.302Z,85.14
2023-03-11T01:13:23.296Z,85.35
2023-03-11T01:14:23.297Z,85.88
2023-03-11T01:15:23.293Z,85.56
2023-03-11T01:16:23.392Z,85.46
2023-03-11T01:17:23.292Z,85.56
2023-03-11T01:18:23.258Z,85.56
2023-03-11T01:19:23.253Z,86.50
2023-03-11T01:20:23.257Z,86.08
2023-03-11T01:21:23.273Z,86.40
2023-03-11T01:22:23.234Z,86.29
2023-03-11T01:23:23.233Z,86.71
2023-03-11T01:24:23.209Z,86.65
2023-03-11T01:25:23.207Z,86.60
2023-03-11T01:26:23.194Z,86.60
2023-03-11T01:27:23.219Z,86.29
2023-03-11T01:28:23.186Z,86.50
2023-03-11T01:29:23.171Z,86.60
2023-03-11T01:30:23.167Z,86.81
2023-03-11T01:31:23.210Z,87.33
2023-03-11T01:32:23.229Z,87.02
2023-03-11T01:33:23.150Z,86.81
2023-03-11T01:34:23.137Z,87.23
2023-03-11T01:35:23.128Z,86.91
2023-03-11T01:36:23.125Z,87.12
2023-03-11T01:37:23.145Z,86.91
2023-03-11T01:38:23.119Z,86.60
2023-03-11T01:39:23.106Z,86.60
2023-03-11T01:40:23.098Z,86.91
2023-03-11T01:41:23.083Z,88.27
2023-03-11T01:42:23.108Z,87.65
2023-03-11T01:43:23.070Z,87.33
2023-03-11T01:44:23.065Z,87.43
2023-03-11T01:45:23.047Z,87.75
2023-03-11T01:46:23.094Z,87.65
2023-03-11T01:47:23.063Z,87.54
2023-03-11T01:48:23.034Z,86.91
2023-03-11T01:49:23.013Z,86.60
2023-03-11T01:50:23.018Z,86.43
2023-03-11T01:51:23.015Z,85.19
2023-03-11T01:52:23.027Z,86.75
2023-03-11T01:53:22.993Z,86.29
2023-03-11T01:54:22.987Z,86.60
2023-03-11T01:55:22.976Z,85.88
2023-03-11T01:56:22.965Z,84.25
2023-03-11T01:57:22.983Z,83.10
2023-03-11T01:58:22.946Z,83.00
2023-03-11T01:59:22.945Z,83.20
2023-03-11T02:00:22.923Z,84.35
2023-03-11T02:01:22.953Z,84.66
2023-03-11T02:02:22.944Z,84.66
2023-03-11T02:03:22.907Z,83.52
2023-03-11T02:04:22.897Z,83.52
2023-03-11T02:05:22.893Z,83.83
2023-03-11T02:06:22.899Z,83.62
2023-03-11T02:07:22.892Z,83.31
2023-03-11T02:08:22.869Z,82.72
2023-03-11T02:09:22.860Z,82.82
2023-03-11T02:10:22.865Z,82.72
2023-03-11T02:11:22.845Z,83.45
2023-03-11T02:12:22.864Z,84.60
2023-03-11T02:13:22.831Z,84.50
2023-03-11T02:14:22.836Z,84.28
2023-03-11T02:15:22.821Z,82.62
2023-03-11T02:16:22.854Z,82.10
2023-03-11T02:17:22.840Z,81.99
2023-03-11T02:18:22.799Z,82.93
2023-03-11T02:19:22.788Z,83.35
2023-03-11T02:20:22.783Z,82.51
2023-03-11T02:21:22.776Z,82.41
2023-03-11T02:22:22.790Z,82.93
2023-03-11T02:23:22.765Z,82.93
2023-03-11T02:24:22.750Z,82.93
2023-03-11T02:25:22.749Z,83.04
2023-03-11T02:26:22.740Z,82.72
2023-03-11T02:27:22.759Z,83.56
2023-03-11T02:28:22.720Z,84.74
2023-03-11T02:29:22.712Z,84.50
2023-03-11T02:30:22.707Z,84.60
2023-03-11T02:31:22.737Z,84.81
2023-03-11T02:32:22.753Z,84.60
2023-03-11T02:33:22.684Z,84.39
2023-03-11T02:34:22.676Z,83.25
2023-03-11T02:35:22.676Z,82.41
2023-03-11T02:36:22.667Z,83.14
2023-03-11T02:37:22.663Z,83.56
2023-03-11T02:38:22.681Z,83.14
2023-03-11T02:39:22.641Z,83.04
2023-03-11T02:40:22.640Z,82.41
2023-03-11T02:41:22.635Z,83.66
2023-03-11T02:42:22.631Z,82.51
2023-03-11T02:43:22.640Z,82.20
2023-03-11T02:44:22.611Z,82.31
2023-03-11T02:45:22.599Z,83.14
2023-03-11T02:46:22.618Z,81.89
2023-03-11T02:47:22.584Z,82.10
2023-03-11T02:48:22.601Z,82.10
2023-03-11T02:49:22.578Z,82.10
2023-03-11T02:50:22.565Z,83.25
2023-03-11T02:51:22.552Z,82.62
2023-03-11T02:52:22.550Z,82.72
2023-03-11T02:53:22.563Z,83.45
2023-03-11T02:54:22.548Z,83.35
2023-03-11T02:55:22.525Z,82.31
2023-03-11T02:56:22.520Z,82.41
2023-03-11T02:57:22.519Z,81.26
2023-03-11T02:58:22.530Z,81.47
2023-03-11T02:59:22.506Z,81.68
2023-03-11T03:00:22.488Z,81.79
2023-03-11T03:01:22.475Z,81.99
2023-03-11T03:02:22.479Z,81.26
2023-03-11T03:03:22.484Z,81.58
2023-03-11T03:04:22.502Z,82.31
2023-03-11T03:05:22.454Z,81.47
2023-03-11T03:06:22.462Z,80.47
2023-03-11T03:07:22.435Z,80.57
2023-03-11T03:08:22.460Z,80.95
2023-03-11T03:09:22.426Z,82.14
2023-03-11T03:10:22.418Z,81.09
2023-03-11T03:11:22.421Z,81.82
2023-03-11T03:12:22.398Z,82.24
2023-03-11T03:13:22.413Z,81.16
2023-03-11T03:14:22.383Z,81.47
2023-03-11T03:15:22.380Z,81.58
2023-03-11T03:16:22.443Z,81.79
2023-03-11T03:17:22.417Z,80.95
2023-03-11T03:18:22.382Z,80.57
2023-03-11T03:19:22.344Z,80.99
2023-03-11T03:20:22.341Z,81.30
2023-03-11T03:21:22.332Z,81.30
2023-03-11T03:22:22.321Z,82.20
2023-03-11T03:23:22.341Z,82.10
2023-03-11T03:24:22.307Z,82.31
2023-03-11T03:25:22.305Z,81.72
2023-03-11T03:26:22.302Z,81.99
2023-03-11T03:27:22.288Z,82.76
2023-03-11T03:28:22.308Z,82.55
2023-03-11T03:29:22.269Z,82.03
2023-03-11T03:30:22.263Z,82.34
2023-03-11T03:31:22.324Z,82.97
2023-03-11T03:32:22.294Z,83.49
2023-03-11T03:33:22.257Z,83.45
2023-03-11T03:34:22.232Z,83.45
2023-03-11T03:35:22.228Z,83.56
2023-03-11T03:36:22.218Z,84.50
2023-03-11T03:37:22.214Z,82.72
2023-03-11T03:38:22.219Z,82.93
2023-03-11T03:39:22.195Z,83.07
2023-03-11T03:40:22.193Z,83.45
2023-03-11T03:41:22.182Z,83.59
2023-03-11T03:42:22.183Z,83.59
2023-03-11T03:43:22.191Z,83.49
2023-03-11T03:44:22.155Z,84.53
2023-03-11T03:45:22.155Z,84.60
2023-03-11T03:46:22.238Z,84.64
2023-03-11T03:47:22.136Z,84.84
2023-03-11T03:48:22.150Z,84.53
2023-03-11T03:49:22.124Z,84.53
2023-03-11T03:50:22.108Z,84.53
2023-03-11T03:51:22.099Z,84.95
2023-03-11T03:52:22.099Z,85.36
2023-03-11T03:53:22.108Z,84.53
2023-03-11T03:54:22.074Z,84.50
2023-03-11T03:55:22.073Z,84.64
2023-03-11T03:56:22.069Z,84.64
2023-03-11T03:57:22.054Z,84.33
2023-03-11T03:58:22.091Z,83.70
2023-03-11T03:59:22.041Z,84.64
2023-03-11T04:00:22.027Z,84.43
2023-03-11T04:01:22.037Z,85.26
2023-03-11T04:02:22.122Z,85.36
2023-03-11T04:03:22.062Z,84.84
2023-03-11T04:04:22.954Z,85.33
2023-03-11T04:05:22.011Z,84.64
2023-03-11T04:06:21.995Z,85.26
2023-03-11T04:07:21.980Z,85.68
2023-03-11T04:08:21.993Z,85.78
2023-03-11T04:09:21.973Z,85.16
2023-03-11T04:10:21.955Z,85.68
2023-03-11T04:11:21.963Z,85.47
2023-03-11T04:12:21.944Z,86.51
2023-03-11T04:13:21.961Z,85.99
2023-03-11T04:14:21.938Z,86.30
2023-03-11T04:15:21.918Z,86.41
2023-03-11T04:16:21.968Z,86.41
2023-03-11T04:17:21.908Z,86.61
2023-03-11T04:18:21.926Z,86.51
2023-03-11T04:19:21.896Z,86.97
2023-03-11T04:20:21.891Z,86.51
2023-03-11T04:21:21.910Z,86.72
2023-03-11T04:22:21.876Z,86.93
2023-03-11T04:23:21.901Z,86.66
2023-03-11T04:24:21.860Z,87.04
2023-03-11T04:25:21.849Z,87.35
2023-03-11T04:26:21.841Z,86.66
2023-03-11T04:27:21.845Z,86.97
2023-03-11T04:28:21.938Z,87.24
2023-03-11T04:29:21.817Z,87.35
2023-03-11T04:30:21.812Z,87.76
2023-03-11T04:31:21.855Z,87.14
2023-03-11T04:32:21.803Z,87.45
2023-03-11T04:33:21.812Z,87.24
2023-03-11T04:34:21.775Z,87.28
2023-03-11T04:35:21.773Z,87.55
2023-03-11T04:36:21.764Z,87.35
2023-03-11T04:37:21.757Z,87.24
2023-03-11T04:38:21.792Z,87.45
2023-03-11T04:39:21.750Z,87.76
2023-03-11T04:40:21.728Z,87.55
2023-03-11T04:41:21.734Z,87.35
2023-03-11T04:42:21.734Z,87.04
2023-03-11T04:43:21.713Z,87.66
2023-03-11T04:44:21.735Z,88.08
2023-03-11T04:45:21.698Z,87.76
2023-03-11T04:46:21.753Z,87.35
2023-03-11T04:47:21.700Z,86.97
2023-03-11T04:48:21.709Z,87.76
2023-03-11T04:49:21.661Z,87.70
2023-03-11T04:50:21.656Z,87.45
2023-03-11T04:51:21.663Z,87.87
2023-03-11T04:52:21.641Z,88.01
2023-03-11T04:53:21.634Z,88.53
2023-03-11T04:54:21.649Z,88.75
2023-03-11T04:55:21.624Z,88.64
2023-03-11T04:56:21.614Z,87.70
2023-03-11T04:57:21.614Z,88.12
2023-03-11T04:58:21.593Z,88.12
2023-03-11T04:59:21.613Z,88.75
2023-03-11T05:00:21.581Z,89.83
2023-03-11T05:01:21.601Z,89.62
2023-03-11T05:02:21.567Z,89.89
2023-03-11T05:03:21.676Z,88.95
2023-03-11T05:04:21.649Z,88.32
2023-03-11T05:05:21.553Z,88.37
2023-03-11T05:06:21.549Z,88.43
2023-03-11T05:07:21.534Z,88.68
2023-03-11T05:08:21.530Z,88.85
2023-03-11T05:09:21.549Z,88.78
2023-03-11T05:10:21.516Z,88.95
2023-03-11T05:11:21.506Z,88.43
2023-03-11T05:12:21.494Z,88.32
2023-03-11T05:13:21.494Z,88.22
2023-03-11T05:14:21.501Z,88.64
2023-03-11T05:15:21.473Z,88.43
2023-03-11T05:16:21.560Z,88.53
2023-03-11T05:17:21.460Z,88.32
2023-03-11T05:18:21.447Z,88.43
2023-03-11T05:19:22.472Z,88.75
2023-03-11T05:20:21.438Z,88.99
2023-03-11T05:21:21.432Z,88.75
2023-03-11T05:22:21.439Z,88.68
2023-03-11T05:23:21.418Z,88.22
2023-03-11T05:24:21.442Z,88.53
2023-03-11T05:25:21.409Z,88.85
2023-03-11T05:26:21.392Z,88.53
2023-03-11T05:27:21.451Z,88.37
2023-03-11T05:28:21.384Z,88.75
2023-03-11T05:29:21.395Z,88.78
2023-03-11T05:30:21.392Z,88.47
2023-03-11T05:31:21.462Z,88.43
2023-03-11T05:32:21.368Z,88.64
2023-03-11T05:33:21.338Z,88.64
2023-03-11T05:34:21.350Z,88.43
2023-03-11T05:35:21.357Z,88.43
2023-03-11T05:36:21.317Z,88.85
2023-03-11T05:37:21.312Z,88.85
2023-03-11T05:38:21.299Z,88.64
2023-03-11T05:39:21.322Z,88.43
2023-03-11T05:40:21.291Z,88.95
2023-03-11T05:41:21.283Z,88.68
2023-03-11T05:42:21.624Z,88.43
2023-03-11T05:43:22.266Z,88.53
2023-03-11T05:44:21.285Z,88.26
2023-03-11T05:45:21.254Z,88.53
2023-03-11T05:46:21.263Z,88.64
2023-03-11T05:47:21.240Z,88.53
2023-03-11T05:48:21.234Z,88.64
2023-03-11T05:49:21.261Z,87.81
2023-03-11T05:50:21.216Z,88.85
2023-03-11T05:51:21.213Z,88.12
2023-03-11T05:52:21.204Z,88.75
2023-03-11T05:53:21.205Z,88.12
2023-03-11T05:54:21.210Z,87.97
2023-03-11T05:55:21.188Z,87.97
2023-03-11T05:56:21.171Z,88.70
2023-03-11T05:57:21.169Z,88.22
2023-03-11T05:58:21.280Z,88.43
2023-03-11T05:59:21.188Z,88.60
2023-03-11T06:00:21.146Z,88.81
2023-03-11T06:01:21.137Z,88.49
2023-03-11T06:02:21.135Z,87.45
2023-03-11T06:03:21.127Z,87.49
2023-03-11T06:04:21.212Z,87.14
2023-03-11T06:05:21.139Z,87.81
2023-03-11T06:06:21.106Z,87.66
2023-03-11T06:07:21.094Z,87.87
2023-03-11T06:08:21.107Z,88.29
2023-03-11T06:09:21.104Z,88.39
2023-03-11T06:10:21.073Z,88.49
2023-03-11T06:11:21.074Z,88.39
2023-03-11T06:12:21.057Z,88.60
2023-03-11T06:13:21.043Z,88.60
2023-03-11T06:14:21.068Z,88.29
2023-03-11T06:15:21.037Z,88.66
2023-03-11T06:16:21.105Z,88.39
2023-03-11T06:17:21.022Z,88.60
2023-03-11T06:18:21.010Z,88.81
2023-03-11T06:19:21.062Z,88.39
2023-03-11T06:20:20.995Z,88.39
2023-03-11T06:21:20.993Z,88.81
2023-03-11T06:22:20.978Z,88.60
2023-03-11T06:23:20.975Z,88.56
2023-03-11T06:24:20.991Z,88.81
2023-03-11T06:25:20.950Z,88.56
2023-03-11T06:26:20.977Z,88.66
2023-03-11T06:27:20.947Z,88.45
2023-03-11T06:28:20.934Z,87.73
2023-03-11T06:29:20.947Z,88.14
2023-03-11T06:30:20.920Z,87.93
2023-03-11T06:31:20.970Z,88.14
2023-03-11T06:32:20.962Z,88.14
2023-03-11T06:33:20.895Z,88.49
2023-03-11T06:34:20.913Z,88.45
2023-03-11T06:35:20.876Z,88.08
2023-03-11T06:36:20.889Z,88.66
2023-03-11T06:37:20.867Z,88.35
2023-03-11T06:38:20.855Z,88.87
2023-03-11T06:39:20.911Z,88.45
2023-03-11T06:40:20.841Z,88.14
2023-03-11T06:41:20.832Z,88.24
2023-03-11T06:42:20.822Z,88.35
2023-03-11T06:43:20.817Z,88.35
2023-03-11T06:44:20.835Z,88.45
2023-03-11T06:45:20.916Z,87.62
2023-03-11T06:46:21.866Z,88.04
2023-03-11T06:47:20.788Z,87.73
2023-03-11T06:48:20.774Z,87.41
2023-03-11T06:49:20.794Z,87.41
2023-03-11T06:50:20.906Z,86.47
2023-03-11T06:51:20.751Z,87.30
2023-03-11T06:52:20.754Z,86.99
2023-03-11T06:53:20.734Z,86.79
2023-03-11T06:54:20.904Z,86.79
2023-03-11T06:55:20.725Z,86.79
2023-03-11T06:56:20.718Z,86.43
2023-03-11T06:57:20.712Z,85.64
2023-03-11T06:58:20.700Z,85.85
2023-03-11T06:59:20.719Z,86.65
2023-03-11T07:00:20.684Z,86.85
2023-03-11T07:01:20.784Z,86.75
2023-03-11T07:02:20.662Z,85.81
2023-03-11T07:03:20.660Z,86.43
2023-03-11T07:04:20.710Z,86.71
2023-03-11T07:05:20.647Z,84.35
2023-03-11T07:06:20.635Z,84.73
2023-03-11T07:07:20.653Z,85.46
2023-03-11T07:08:20.629Z,85.67
2023-03-11T07:09:20.639Z,85.67
2023-03-11T07:10:20.605Z,84.94
2023-03-11T07:11:20.598Z,84.73
2023-03-11T07:12:20.591Z,84.42
2023-03-11T07:13:20.582Z,84.42
2023-03-11T07:14:20.612Z,84.38
2023-03-11T07:15:20.579Z,84.42
2023-03-11T07:16:20.724Z,83.80
2023-03-11T07:17:20.552Z,83.23
2023-03-11T07:18:21.098Z,83.06
2023-03-11T07:19:20.916Z,83.37
2023-03-11T07:20:20.537Z,83.62
2023-03-11T07:21:20.560Z,84.39
2023-03-11T07:22:20.515Z,85.12
2023-03-11T07:23:20.500Z,84.81
2023-03-11T07:24:21.019Z,83.14
2023-03-11T07:25:20.492Z,84.45
2023-03-11T07:26:20.484Z,85.50
2023-03-11T07:27:20.881Z,85.77
2023-03-11T07:28:20.471Z,86.29
2023-03-11T07:29:21.093Z,86.60
2023-03-11T07:30:20.703Z,86.57
2023-03-11T07:31:20.701Z,86.67
2023-03-11T07:32:20.471Z,86.98
2023-03-11T07:33:20.809Z,86.77
2023-03-11T07:34:20.403Z,86.77
2023-03-11T07:35:21.432Z,86.63
2023-03-11T07:36:20.400Z,86.63
2023-03-11T07:37:20.396Z,85.59
2023-03-11T07:38:20.957Z,84.75
2023-03-11T07:39:20.386Z,84.34
2023-03-11T07:40:20.406Z,84.65
2023-03-11T07:41:20.564Z,84.51
2023-03-11T07:42:20.694Z,83.09
2023-03-11T07:43:21.007Z,82.84
2023-03-11T07:44:20.458Z,82.64
2023-03-11T07:45:20.364Z,82.43
2023-03-11T07:46:20.335Z,82.81
2023-03-11T07:47:20.814Z,82.22
2023-03-11T07:48:20.673Z,81.77
2023-03-11T07:49:20.316Z,82.35
2023-03-11T07:50:20.311Z,81.42
2023-03-11T07:51:20.299Z,82.15
2023-03-11T07:52:20.276Z,81.07
2023-03-11T07:53:20.263Z,80.24
2023-03-11T07:54:20.262Z,79.38
2023-03-11T07:55:20.276Z,79.90
2023-03-11T07:56:20.235Z,78.68
2023-03-11T07:57:20.234Z,78.78
2023-03-11T07:58:20.227Z,80.04
2023-03-11T07:59:20.218Z,79.10
2023-03-11T08:00:20.237Z,79.10
2023-03-11T08:01:20.211Z,78.68
2023-03-11T08:02:20.251Z,78.82
2023-03-11T08:03:20.234Z,78.82
2023-03-11T08:04:20.178Z,79.03
2023-03-11T08:05:20.191Z,78.58
2023-03-11T08:06:20.169Z,78.27
2023-03-11T08:07:20.157Z,77.95
2023-03-11T08:08:20.132Z,76.40
2023-03-11T08:09:21.144Z,76.81
2023-03-11T08:10:20.157Z,76.16
2023-03-11T08:11:20.129Z,75.92
2023-03-11T08:12:20.112Z,73.84
2023-03-11T08:13:20.104Z,72.16
2023-03-11T08:14:20.099Z,71.54
2023-03-11T08:15:20.117Z,69.14
2023-03-11T08:16:20.084Z,65.62
2023-03-11T08:17:20.076Z,63.82
2023-03-11T08:18:20.067Z,60.91
2023-03-11T08:19:20.055Z,58.04
2023-03-11T08:20:20.077Z,59.93
2023-03-11T08:21:20.038Z,62.71
2023-03-11T08:22:20.037Z,63.68
2023-03-11T08:23:20.028Z,60.21
2023-03-11T08:24:20.033Z,58.72
2023-03-11T08:25:20.038Z,60.47
2023-03-11T08:26:20.000Z,63.17
2023-03-11T08:27:19.999Z,64.28
2023-03-11T08:28:19.995Z,65.41
2023-03-11T08:29:19.985Z,66.60
2023-03-11T08:30:19.998Z,67.74
2023-03-11T08:31:20.025Z,66.99
2023-03-11T08:32:19.982Z,67.19
2023-03-11T08:33:19.947Z,67.54
2023-03-11T08:34:19.945Z,67.54
2023-03-11T08:35:19.954Z,67.36
2023-03-11T08:36:19.918Z,67.43
2023-03-11T08:37:19.916Z,67.85
2023-03-11T08:38:19.912Z,66.84
2023-03-11T08:39:19.914Z,66.42
2023-03-11T08:40:19.923Z,65.16
2023-03-11T08:41:19.876Z,63.31
2023-03-11T08:42:19.867Z,62.99
2023-03-11T08:43:19.864Z,60.86
2023-03-11T08:44:19.853Z,58.80
2023-03-11T08:45:19.878Z,56.82
2023-03-11T08:46:19.937Z,56.77
2023-03-11T08:47:19.840Z,56.62
2023-03-11T08:48:19.826Z,57.87
2023-03-11T08:49:19.815Z,57.57
2023-03-11T08:50:19.834Z,59.22
2023-03-11T08:51:19.802Z,59.40
2023-03-11T08:52:19.792Z,61.03
2023-03-11T08:53:19.787Z,61.90
2023-03-11T08:54:19.776Z,60.59
2023-03-11T08:55:19.791Z,59.70
2023-03-11T08:56:19.783Z,59.61
2023-03-11T08:57:19.752Z,59.86
2023-03-11T08:58:19.748Z,59.28
2023-03-11T08:59:19.731Z,60.07
2023-03-11T09:00:19.747Z,58.32
2023-03-11T09:01:19.721Z,59.04
2023-03-11T09:02:19.741Z,58.31
2023-03-11T09:03:19.708Z,57.00
2023-03-11T09:04:19.701Z,55.62
2023-03-11T09:05:19.711Z,53.77
2023-03-11T09:06:19.676Z,53.38
2023-03-11T09:07:19.676Z,53.61
2023-03-11T09:08:19.665Z,55.51
2023-03-11T09:09:19.654Z,57.65
2023-03-11T09:10:19.681Z,58.74
2023-03-11T09:11:19.645Z,59.90
2023-03-11T09:12:19.633Z,59.25
2023-03-11T09:13:19.623Z,58.69
2023-03-11T09:14:19.626Z,57.06
2023-03-11T09:15:19.636Z,56.38
2023-03-11T09:16:19.717Z,56.70
2023-03-11T09:17:19.591Z,55.49
2023-03-11T09:18:19.589Z,55.49
2023-03-11T09:19:19.584Z,57.88
2023-03-11T09:20:19.607Z,57.83
2023-03-11T09:21:19.598Z,57.99
2023-03-11T09:22:19.564Z,58.61
2023-03-11T09:23:19.558Z,58.81
2023-03-11T09:24:19.548Z,57.47
2023-03-11T09:25:19.558Z,59.12
2023-03-11T09:26:19.526Z,59.77
2023-03-11T09:27:19.516Z,59.80
2023-03-11T09:28:19.517Z,60.71
2023-03-11T09:29:19.508Z,62.73
2023-03-11T09:30:19.520Z,64.18
2023-03-11T09:31:19.568Z,63.38
2023-03-11T09:32:19.506Z,63.28
2023-03-11T09:33:19.478Z,62.84
2023-03-11T09:34:19.471Z,61.18
2023-03-11T09:35:19.504Z,61.18
2023-03-11T09:36:19.456Z,60.91
2023-03-11T09:37:19.451Z,62.51
2023-03-11T09:38:19.424Z,60.39
2023-03-11T09:39:20.423Z,59.95
2023-03-11T09:40:19.462Z,59.45
2023-03-11T09:41:19.412Z,57.34
2023-03-11T09:42:19.396Z,57.29
2023-03-11T09:43:20.389Z,58.79
2023-03-11T09:44:19.395Z,60.02
2023-03-11T09:45:19.402Z,62.03
2023-03-11T09:46:20.382Z,60.19
2023-03-11T09:47:19.362Z,59.01
2023-03-11T09:48:21.761Z,57.16
2023-03-11T09:49:19.346Z,58.34
2023-03-11T09:50:19.362Z,58.47
2023-03-11T09:51:19.332Z,58.65
2023-03-11T09:52:19.319Z,58.99
2023-03-11T09:53:19.322Z,59.30
2023-03-11T09:54:19.303Z,58.37
2023-03-11T09:55:19.320Z,59.58
2023-03-11T09:56:19.297Z,59.97
2023-03-11T09:57:19.299Z,59.66
2023-03-11T09:58:19.276Z,60.05
2023-03-11T09:59:19.275Z,59.14
2023-03-11T10:00:19.291Z,59.45
2023-03-11T10:01:19.249Z,58.94
2023-03-11T10:02:19.364Z,60.02
2023-03-11T10:03:19.294Z,59.64
2023-03-11T10:04:19.218Z,59.77
2023-03-11T10:05:20.266Z,61.11
2023-03-11T10:06:19.212Z,61.01
2023-03-11T10:07:19.202Z,60.83
2023-03-11T10:08:19.195Z,62.62
2023-03-11T10:09:19.191Z,62.65
2023-03-11T10:10:19.199Z,62.67
2023-03-11T10:11:19.193Z,63.29
2023-03-11T10:12:19.192Z,63.40
2023-03-11T10:13:19.167Z,63.09
2023-03-11T10:14:19.151Z,64.23
2023-03-11T10:15:19.142Z,64.74
2023-03-11T10:16:19.230Z,63.06
2023-03-11T10:17:19.131Z,62.51
2023-03-11T10:18:19.123Z,62.48
2023-03-11T10:19:19.100Z,60.44
2023-03-11T10:20:19.108Z,60.89
2023-03-11T10:21:19.123Z,61.71
2023-03-11T10:22:19.087Z,61.17
2023-03-11T10:23:19.089Z,61.51
2023-03-11T10:24:19.093Z,61.89
2023-03-11T10:25:19.062Z,62.13
2023-03-11T10:26:19.082Z,62.70
2023-03-11T10:27:19.048Z,65.17
2023-03-11T10:28:19.041Z,65.93
2023-03-11T10:29:19.031Z,66.35
2023-03-11T10:30:19.023Z,66.03
2023-03-11T10:31:19.168Z,67.79
2023-03-11T10:32:19.048Z,66.52
2023-03-11T10:33:19.010Z,66.59
2023-03-11T10:34:18.990Z,66.53
2023-03-11T10:35:18.990Z,65.08
2023-03-11T10:36:19.002Z,64.40
2023-03-11T10:37:18.966Z,63.89
2023-03-11T10:38:18.960Z,63.57
2023-03-11T10:39:18.948Z,64.37
2023-03-11T10:40:18.937Z,63.06
2023-03-11T10:41:18.961Z,62.75
2023-03-11T10:42:18.936Z,61.71
2023-03-11T10:43:18.920Z,60.86
2023-03-11T10:44:18.916Z,62.27
2023-03-11T10:45:18.902Z,62.10
2023-03-11T10:46:19.000Z,61.20
2023-03-11T10:47:18.897Z,62.65
2023-03-11T10:48:18.875Z,63.03
2023-03-11T10:49:18.897Z,62.75
2023-03-11T10:50:18.882Z,61.69
2023-03-11T10:51:18.878Z,60.93
2023-03-11T10:52:18.855Z,59.39
2023-03-11T10:53:18.841Z,59.55
2023-03-11T10:54:18.837Z,59.72
2023-03-11T10:55:18.823Z,60.00
2023-03-11T10:56:18.845Z,59.28
2023-03-11T10:57:18.804Z,58.97
2023-03-11T10:58:18.796Z,59.62
2023-03-11T10:59:18.799Z,59.59
2023-03-11T11:00:18.879Z,58.56
2023-03-11T11:01:18.870Z,59.36
2023-03-11T11:02:18.771Z,59.77
2023-03-11T11:03:18.764Z,58.50
2023-03-11T11:04:18.787Z,58.89
2023-03-11T11:05:18.774Z,58.48
2023-03-11T11:06:18.766Z,58.63
2023-03-11T11:07:18.742Z,59.14
2023-03-11T11:08:18.734Z,58.94
2023-03-11T11:09:18.714Z,58.97
2023-03-11T11:10:18.760Z,58.69
2023-03-11T11:11:18.726Z,59.64
2023-03-11T11:12:18.700Z,59.02
2023-03-11T11:13:18.693Z,58.99
2023-03-11T11:14:18.680Z,58.37
2023-03-11T11:15:18.669Z,58.79
2023-03-11T11:16:18.860Z,57.34
2023-03-11T11:17:18.676Z,57.14
2023-03-11T11:18:18.643Z,58.58
2023-03-11T11:19:18.765Z,57.14
2023-03-11T11:20:18.655Z,57.55
2023-03-11T11:21:18.650Z,59.51
2023-03-11T11:22:18.614Z,58.48
2023-03-11T11:23:18.608Z,57.24
2023-03-11T11:24:18.600Z,57.01
2023-03-11T11:25:18.621Z,57.14
2023-03-11T11:26:18.663Z,57.11
2023-03-11T11:27:18.604Z,57.83
2023-03-11T11:28:18.566Z,56.77
2023-03-11T11:29:18.558Z,57.50
2023-03-11T11:30:18.622Z,57.55
2023-03-11T11:31:18.588Z,58.48
2023-03-11T11:32:18.592Z,59.23
2023-03-11T11:33:18.528Z,59.46
2023-03-11T11:34:18.532Z,59.36
2023-03-11T11:35:18.565Z,59.15
2023-03-11T11:36:18.510Z,59.25
2023-03-11T11:37:18.529Z,61.55
2023-03-11T11:38:18.491Z,60.93
2023-03-11T11:39:18.480Z,59.49
2023-03-11T11:40:18.542Z,59.28
2023-03-11T11:41:18.478Z,60.75
2023-03-11T11:42:18.486Z,61.89
2023-03-11T11:43:18.463Z,60.73
2023-03-11T11:44:18.448Z,60.31
2023-03-11T11:45:18.432Z,60.08
2023-03-11T11:46:18.480Z,58.61
2023-03-11T11:47:18.460Z,58.92
2023-03-11T11:48:18.413Z,59.12
2023-03-11T11:49:18.402Z,58.81
2023-03-11T11:50:18.392Z,57.29
2023-03-11T11:51:18.387Z,58.92
2023-03-11T11:52:18.409Z,60.08
2023-03-11T11:53:18.375Z,59.98
2023-03-11T11:54:18.360Z,58.71
2023-03-11T11:55:18.356Z,58.89
2023-03-11T11:56:18.347Z,59.02
2023-03-11T11:57:18.372Z,60.83
2023-03-11T11:58:18.333Z,59.20
2023-03-11T11:59:18.328Z,59.10
2023-03-11T12:00:18.333Z,58.40
2023-03-11T12:01:19.313Z,58.92
2023-03-11T12:02:18.331Z,59.39
2023-03-11T12:03:18.344Z,58.87
2023-03-11T12:04:18.301Z,58.87
2023-03-11T12:05:18.308Z,58.28
2023-03-11T12:06:18.265Z,58.87
2023-03-11T12:07:18.286Z,59.18
2023-03-11T12:08:18.288Z,59.31
2023-03-11T12:09:18.249Z,59.83
2023-03-11T12:10:23.247Z,60.16
2023-03-11T12:11:20.236Z,61.95
2023-03-11T12:12:18.254Z,62.65
2023-03-11T12:13:18.223Z,62.13
2023-03-11T12:14:18.277Z,60.99
2023-03-11T12:15:18.202Z,60.68
2023-03-11T12:16:18.220Z,61.45
2023-03-11T12:17:18.225Z,61.99
2023-03-11T12:18:18.173Z,62.54
2023-03-11T12:19:18.175Z,61.95
2023-03-11T12:20:18.154Z,62.13
2023-03-11T12:21:18.156Z,63.26
2023-03-11T12:22:18.174Z,63.26
2023-03-11T12:23:18.156Z,62.93
2023-03-11T12:24:18.128Z,60.37
2023-03-11T12:25:18.122Z,62.08
2023-03-11T12:26:18.120Z,61.46
2023-03-11T12:27:18.135Z,62.29
2023-03-11T12:28:18.109Z,63.12
2023-03-11T12:29:18.100Z,62.49
2023-03-11T12:30:18.086Z,63.32
2023-03-11T12:31:18.138Z,59.75
2023-03-11T12:32:18.110Z,61.93
2023-03-11T12:33:18.066Z,63.12
2023-03-11T12:34:18.059Z,61.64
2023-03-11T12:35:18.055Z,60.37
2023-03-11T12:36:18.042Z,58.28
2023-03-11T12:37:18.062Z,57.53
2023-03-11T12:38:18.034Z,58.56
2023-03-11T12:39:18.019Z,58.64
2023-03-11T12:40:18.018Z,57.60
2023-03-11T12:41:19.858Z,56.46
2023-03-11T12:42:18.017Z,55.72
2023-03-11T12:43:17.986Z,53.96
2023-03-11T12:44:17.988Z,53.83
2023-03-11T12:45:17.978Z,56.93
2023-03-11T12:46:18.066Z,58.48
2023-03-11T12:47:17.989Z,59.30
2023-03-11T12:48:17.952Z,61.19
2023-03-11T12:49:17.944Z,59.64
2023-03-11T12:50:17.945Z,58.94
2023-03-11T12:51:17.929Z,58.94
2023-03-11T12:52:17.950Z,58.94